CKH7 weather

Spiritwood Airport
Spiritwood, Saskatchewan, Canada

Public forecast

Using degrees Celsius for public forecast. Weather courtesy of forecast.io.

METAR (pilot weather report)

Closest report is North Battleford Airport, 43.6 nm (80.8 km) SW. Retrieved 2019/04/25 21:00 UTC (47 minutes ago):

CYQW 252100Z AUTO 29024G29KT 270V340 9SM CLR 11/M17 A3011 RMK SLP217

TAF (pilot weather forecast)

Closest forecast is North Battleford Airport, 43.6 nm (80.8 km) SW. Retrieved 2019/04/25 18:42 UTC (3 hours ago):

TAF CYQW 251738Z 2518/2606 31020G30KT P6SM FEW060 FM252100 31022G32KT P6SM SCT080 TEMPO 2521/2603 BKN080 BECMG 2523/2601 31015KT FM260300 32008KT P6SM SKC RMK FCST BASED ON AUTO OBS. NXT FCST BY 260000Z